sensor_id;sensor_type;location;lat;lon;timestamp;pressure;altitude;pressure_sealevel;temperature;humidity
29197;BME280;62796;42.654;23.316;2023-11-21T00:01:15;94425.53;;;8.08;55.30
29197;BME280;62796;42.654;23.316;2023-11-21T00:03:40;94432.25;;;8.07;55.34
29197;BME280;62796;42.654;23.316;2023-11-21T00:06:06;94430.00;;;8.06;55.30
29197;BME280;62796;42.654;23.316;2023-11-21T00:08:35;94423.97;;;8.07;55.29
29197;BME280;62796;42.654;23.316;2023-11-21T00:11:00;94429.13;;;8.00;55.57
29197;BME280;62796;42.654;23.316;2023-11-21T00:13:26;94404.19;;;7.94;55.55
29197;BME280;62796;42.654;23.316;2023-11-21T00:15:52;94432.75;;;8.06;55.70
29197;BME280;62796;42.654;23.316;2023-11-21T00:18:17;94417.13;;;8.03;55.51
29197;BME280;62796;42.654;23.316;2023-11-21T00:20:43;94400.56;;;7.88;55.53
29197;BME280;62796;42.654;23.316;2023-11-21T00:23:08;94430.28;;;8.08;55.61
29197;BME280;62796;42.654;23.316;2023-11-21T00:25:35;94416.38;;;8.02;55.50
29197;BME280;62796;42.654;23.316;2023-11-21T00:28:00;94417.91;;;8.03;55.55
29197;BME280;62796;42.654;23.316;2023-11-21T00:30:27;94410.75;;;7.97;55.75
29197;BME280;62796;42.654;23.316;2023-11-21T00:32:53;94410.25;;;7.98;55.71
29197;BME280;62796;42.654;23.316;2023-11-21T00:35:18;94408.16;;;7.93;56.10
29197;BME280;62796;42.654;23.316;2023-11-21T00:37:43;94421.13;;;8.02;56.41
29197;BME280;62796;42.654;23.316;2023-11-21T00:40:09;94415.72;;;8.07;56.14
29197;BME280;62796;42.654;23.316;2023-11-21T00:42:35;94413.72;;;8.08;55.95
29197;BME280;62796;42.654;23.316;2023-11-21T00:45:00;94408.38;;;8.04;56.28
29197;BME280;62796;42.654;23.316;2023-11-21T00:47:26;94399.41;;;7.95;56.17
29197;BME280;62796;42.654;23.316;2023-11-21T00:49:51;94420.94;;;8.05;56.46
29197;BME280;62796;42.654;23.316;2023-11-21T00:52:18;94417.59;;;8.01;56.15
29197;BME280;62796;42.654;23.316;2023-11-21T00:54:43;94421.88;;;8.02;56.21
29197;BME280;62796;42.654;23.316;2023-11-21T00:57:10;94408.28;;;7.99;56.21
29197;BME280;62796;42.654;23.316;2023-11-21T00:59:37;94397.13;;;7.93;56.25
29197;BME280;62796;42.654;23.316;2023-11-21T01:02:02;94402.09;;;8.04;56.26
29197;BME280;62796;42.654;23.316;2023-11-21T01:04:30;94404.22;;;8.09;55.96
29197;BME280;62796;42.654;23.316;2023-11-21T01:06:57;94398.28;;;8.01;56.06
29197;BME280;62796;42.654;23.316;2023-11-21T01:09:22;94401.03;;;8.01;55.92
29197;BME280;62796;42.654;23.316;2023-11-21T01:11:47;94404.47;;;7.96;56.12
29197;BME280;62796;42.654;23.316;2023-11-21T01:14:13;94392.56;;;7.90;56.03
29197;BME280;62796;42.654;23.316;2023-11-21T01:16:38;94398.66;;;7.94;56.04
29197;BME280;62796;42.654;23.316;2023-11-21T01:19:04;94401.13;;;7.92;56.14
29197;BME280;62796;42.654;23.316;2023-11-21T01:21:29;94397.13;;;7.93;55.92
29197;BME280;62796;42.654;23.316;2023-11-21T01:23:56;94406.19;;;7.94;56.31
29197;BME280;62796;42.654;23.316;2023-11-21T01:26:21;94408.16;;;7.93;55.97
29197;BME280;62796;42.654;23.316;2023-11-21T01:28:46;94405.00;;;7.86;56.27
29197;BME280;62796;42.654;23.316;2023-11-21T01:31:14;94393.22;;;7.85;56.18
29197;BME280;62796;42.654;23.316;2023-11-21T01:33:40;94408.41;;;7.80;56.24
29197;BME280;62796;42.654;23.316;2023-11-21T01:36:05;94382.31;;;7.67;56.49
29197;BME280;62796;42.654;23.316;2023-11-21T01:38:31;94392.09;;;7.68;56.44
29197;BME280;62796;42.654;23.316;2023-11-21T01:40:57;94389.06;;;7.66;56.68
29197;BME280;62796;42.654;23.316;2023-11-21T01:43:22;94397.56;;;7.77;56.52
29197;BME280;62796;42.654;23.316;2023-11-21T01:45:48;94402.19;;;7.71;56.27
29197;BME280;62796;42.654;23.316;2023-11-21T01:48:14;94407.34;;;7.78;56.58
29197;BME280;62796;42.654;23.316;2023-11-21T01:50:42;94383.56;;;7.66;56.55
29197;BME280;62796;42.654;23.316;2023-11-21T01:53:07;94384.50;;;7.63;56.52
29197;BME280;62796;42.654;23.316;2023-11-21T01:55:33;94394.56;;;7.66;56.38
29197;BME280;62796;42.654;23.316;2023-11-21T01:57:59;94391.22;;;7.62;56.51
29197;BME280;62796;42.654;23.316;2023-11-21T02:00:25;94401.13;;;7.68;56.17
29197;BME280;62796;42.654;23.316;2023-11-21T02:02:53;94369.59;;;7.46;56.27
29197;BME280;62796;42.654;23.316;2023-11-21T02:05:19;94387.72;;;7.61;56.06
29197;BME280;62796;42.654;23.316;2023-11-21T02:07:45;94393.69;;;7.60;56.22
29197;BME280;62796;42.654;23.316;2023-11-21T02:10:14;94380.91;;;7.48;56.32
29197;BME280;62796;42.654;23.316;2023-11-21T02:12:43;94397.09;;;7.55;56.16
29197;BME280;62796;42.654;23.316;2023-11-21T02:15:13;94401.75;;;7.49;56.27
29197;BME280;62796;42.654;23.316;2023-11-21T02:17:51;94379.16;;;7.36;56.27
29197;BME280;62796;42.654;23.316;2023-11-21T02:20:19;94402.84;;;7.42;56.96
29197;BME280;62796;42.654;23.316;2023-11-21T02:22:55;94391.41;;;7.35;56.81
29197;BME280;62796;42.654;23.316;2023-11-21T02:25:29;94392.34;;;7.32;57.06
29197;BME280;62796;42.654;23.316;2023-11-21T02:27:55;94388.19;;;7.36;56.79
29197;BME280;62796;42.654;23.316;2023-11-21T02:30:21;94388.66;;;7.35;56.98
29197;BME280;62796;42.654;23.316;2023-11-21T02:32:48;94377.94;;;7.37;57.24
29197;BME280;62796;42.654;23.316;2023-11-21T02:35:14;94393.81;;;7.42;57.11
29197;BME280;62796;42.654;23.316;2023-11-21T02:37:41;94379.03;;;7.30;57.01
29197;BME280;62796;42.654;23.316;2023-11-21T02:40:08;94384.22;;;7.37;57.15
29197;BME280;62796;42.654;23.316;2023-11-21T02:42:35;94396.56;;;7.42;56.96
29197;BME280;62796;42.654;23.316;2023-11-21T02:45:00;94378.88;;;7.34;57.29
29197;BME280;62796;42.654;23.316;2023-11-21T02:47:25;94382.84;;;7.33;56.99
29197;BME280;62796;42.654;23.316;2023-11-21T02:49:51;94387.78;;;7.29;57.12
29197;BME280;62796;42.654;23.316;2023-11-21T02:52:18;94382.84;;;7.33;57.36
29197;BME280;62796;42.654;23.316;2023-11-21T02:54:44;94384.22;;;7.37;56.94
29197;BME280;62796;42.654;23.316;2023-11-21T02:57:09;94373.13;;;7.22;57.10
29197;BME280;62796;42.654;23.316;2023-11-21T02:59:35;94388.34;;;7.33;56.64
29197;BME280;62796;42.654;23.316;2023-11-21T03:02:00;94386.84;;;7.32;56.69
29197;BME280;62796;42.654;23.316;2023-11-21T03:04:26;94367.41;;;7.26;57.01
29197;BME280;62796;42.654;23.316;2023-11-21T03:06:51;94367.63;;;7.22;57.12
29197;BME280;62796;42.654;23.316;2023-11-21T03:09:16;94369.13;;;7.23;57.28
29197;BME280;62796;42.654;23.316;2023-11-21T03:11:42;94369.88;;;7.24;57.24
29197;BME280;62796;42.654;23.316;2023-11-21T03:14:07;94388.53;;;7.29;57.64
29197;BME280;62796;42.654;23.316;2023-11-21T03:16:33;94383.78;;;7.30;57.26
29197;BME280;62796;42.654;23.316;2023-11-21T03:18:58;94362.44;;;7.15;57.91
29197;BME280;62796;42.654;23.316;2023-11-21T03:21:24;94388.72;;;7.26;57.89
29197;BME280;62796;42.654;23.316;2023-11-21T03:23:51;94397.88;;;7.32;57.63
29197;BME280;62796;42.654;23.316;2023-11-21T03:26:17;94402.78;;;7.28;57.33
29197;BME280;62796;42.654;23.316;2023-11-21T03:28:43;94392.09;;;7.20;57.37
29197;BME280;62796;42.654;23.316;2023-11-21T03:31:08;94399.53;;;7.29;57.38
29197;BME280;62796;42.654;23.316;2023-11-21T03:33:37;94400.66;;;7.22;57.61
29197;BME280;62796;42.654;23.316;2023-11-21T03:36:02;94369.16;;;7.14;57.68
29197;BME280;62796;42.654;23.316;2023-11-21T03:38:29;94387.19;;;7.24;57.44
29197;BME280;62796;42.654;23.316;2023-11-21T03:40:54;94399.38;;;7.33;57.81
29197;BME280;62796;42.654;23.316;2023-11-21T03:43:20;94373.56;;;7.21;57.47
29197;BME280;62796;42.654;23.316;2023-11-21T03:45:45;94390.81;;;7.31;57.11
29197;BME280;62796;42.654;23.316;2023-11-21T03:48:12;94381.34;;;7.32;57.13
29197;BME280;62796;42.654;23.316;2023-11-21T03:50:38;94372.63;;;7.24;57.51
29197;BME280;62796;42.654;23.316;2023-11-21T03:53:04;94374.06;;;7.19;57.75
29197;BME280;62796;42.654;23.316;2023-11-21T03:55:29;94370.66;;;7.24;57.92
29197;BME280;62796;42.654;23.316;2023-11-21T03:57:56;94371.53;;;7.31;57.81
29197;BME280;62796;42.654;23.316;2023-11-21T04:00:22;94371.53;;;7.31;57.59
29197;BME280;62796;42.654;23.316;2023-11-21T04:02:47;94377.16;;;7.36;57.28
29197;BME280;62796;42.654;23.316;2023-11-21T04:05:13;94358.09;;;7.23;57.41
29197;BME280;62796;42.654;23.316;2023-11-21T04:07:38;94358.09;;;7.23;57.36
29197;BME280;62796;42.654;23.316;2023-11-21T04:10:06;94357.47;;;7.29;57.05
29197;BME280;62796;42.654;23.316;2023-11-21T04:12:33;94361.75;;;7.30;57.31
29197;BME280;62796;42.654;23.316;2023-11-21T04:14:59;94356.88;;;7.24;57.27
29197;BME280;62796;42.654;23.316;2023-11-21T04:17:24;94357.94;;;7.27;57.09
29197;BME280;62796;42.654;23.316;2023-11-21T04:19:49;94358.69;;;7.28;57.36
29197;BME280;62796;42.654;23.316;2023-11-21T04:22:15;94360.41;;;7.25;57.26
29197;BME280;62796;42.654;23.316;2023-11-21T04:24:40;94343.44;;;7.17;57.28
29197;BME280;62796;42.654;23.316;2023-11-21T04:27:06;94351.25;;;7.19;57.44
29197;BME280;62796;42.654;23.316;2023-11-21T04:29:31;94353.34;;;7.24;57.13
29197;BME280;62796;42.654;23.316;2023-11-21T04:31:56;94364.84;;;7.22;57.45
29197;BME280;62796;42.654;23.316;2023-11-21T04:34:22;94360.91;;;7.14;57.77
29197;BME280;62796;42.654;23.316;2023-11-21T04:36:47;94361.78;;;7.20;57.64
29197;BME280;62796;42.654;23.316;2023-11-21T04:39:12;94364.22;;;7.28;57.84
29197;BME280;62796;42.654;23.316;2023-11-21T04:41:38;94365.84;;;7.34;57.30
29197;BME280;62796;42.654;23.316;2023-11-21T04:44:05;94364.16;;;7.37;57.24
29197;BME280;62796;42.654;23.316;2023-11-21T04:46:31;94362.34;;;7.34;57.37
29197;BME280;62796;42.654;23.316;2023-11-21T04:48:57;94377.94;;;7.37;56.89
29197;BME280;62796;42.654;23.316;2023-11-21T04:51:23;94359.63;;;7.24;57.03
29197;BME280;62796;42.654;23.316;2023-11-21T04:53:48;94369.44;;;7.26;57.11
29197;BME280;62796;42.654;23.316;2023-11-21T04:56:14;94375.41;;;7.24;56.89
29197;BME280;62796;42.654;23.316;2023-11-21T04:58:41;94374.06;;;7.19;56.94
29197;BME280;62796;42.654;23.316;2023-11-21T05:01:07;94378.03;;;7.18;57.11
29197;BME280;62796;42.654;23.316;2023-11-21T05:03:33;94371.91;;;7.14;56.62
29197;BME280;62796;42.654;23.316;2023-11-21T05:05:59;94378.38;;;7.11;57.07
29197;BME280;62796;42.654;23.316;2023-11-21T05:08:25;94390.31;;;7.08;57.29
29197;BME280;62796;42.654;23.316;2023-11-21T05:10:51;94382.94;;;7.14;56.97
29197;BME280;62796;42.654;23.316;2023-11-21T05:13:17;94354.22;;;7.06;57.24
29197;BME280;62796;42.654;23.316;2023-11-21T05:15:43;94364.31;;;7.09;57.49
29197;BME280;62796;42.654;23.316;2023-11-21T05:18:09;94359.31;;;6.99;57.74
29197;BME280;62796;42.654;23.316;2023-11-21T05:20:35;94367.72;;;7.04;57.55
29197;BME280;62796;42.654;23.316;2023-11-21T05:23:01;94356.97;;;7.06;57.71
29197;BME280;62796;42.654;23.316;2023-11-21T05:25:26;94366.78;;;7.07;57.89
29197;BME280;62796;42.654;23.316;2023-11-21T05:27:52;94368.88;;;7.12;57.70
29197;BME280;62796;42.654;23.316;2023-11-21T05:30:18;94344.97;;;6.95;57.67
29197;BME280;62796;42.654;23.316;2023-11-21T05:32:44;94364.63;;;7.02;57.67
29197;BME280;62796;42.654;23.316;2023-11-21T05:35:11;94375.00;;;7.16;57.44
29197;BME280;62796;42.654;23.316;2023-11-21T05:37:41;94357.63;;;7.01;57.63
29197;BME280;62796;42.654;23.316;2023-11-21T05:40:08;94382.00;;;7.17;57.87
29197;BME280;62796;42.654;23.316;2023-11-21T05:42:34;94372.28;;;7.07;57.80
29197;BME280;62796;42.654;23.316;2023-11-21T05:45:00;94380.81;;;7.09;57.94
29197;BME280;62796;42.654;23.316;2023-11-21T05:47:54;94386.47;;;7.15;57.83
29197;BME280;62796;42.654;23.316;2023-11-21T05:50:20;94378.03;;;7.18;57.68
29197;BME280;62796;42.654;23.316;2023-11-21T05:52:47;94377.53;;;7.20;57.68
29197;BME280;62796;42.654;23.316;2023-11-21T05:55:13;94376.75;;;7.29;57.92
29197;BME280;62796;42.654;23.316;2023-11-21T05:57:39;94379.19;;;7.27;57.52
29197;BME280;62796;42.654;23.316;2023-11-21T06:00:07;94375.34;;;7.33;57.33
29197;BME280;62796;42.654;23.316;2023-11-21T06:02:51;94379.81;;;7.31;57.78
29197;BME280;62796;42.654;23.316;2023-11-21T06:05:22;94386.97;;;7.37;57.71
29197;BME280;62796;42.654;23.316;2023-11-21T06:07:55;94350.50;;;7.18;57.57
29197;BME280;62796;42.654;23.316;2023-11-21T06:10:24;94377.56;;;7.44;57.83
29197;BME280;62796;42.654;23.316;2023-11-21T06:12:50;94369.88;;;7.48;57.40
29197;BME280;62796;42.654;23.316;2023-11-21T06:15:15;94388.84;;;7.55;57.49
29197;BME280;62796;42.654;23.316;2023-11-21T06:17:42;94393.53;;;7.63;57.22
29197;BME280;62796;42.654;23.316;2023-11-21T06:20:09;94399.53;;;7.76;56.98
29197;BME280;62796;42.654;23.316;2023-11-21T06:22:38;94386.53;;;7.77;56.60
29197;BME280;62796;42.654;23.316;2023-11-21T06:25:05;94387.19;;;7.72;57.05
29197;BME280;62796;42.654;23.316;2023-11-21T06:27:34;94399.97;;;7.84;56.41
29197;BME280;62796;42.654;23.316;2023-11-21T06:30:01;94405.13;;;7.91;56.48
29197;BME280;62796;42.654;23.316;2023-11-21T06:32:27;94389.72;;;7.99;56.26
29197;BME280;62796;42.654;23.316;2023-11-21T06:34:57;94401.53;;;8.00;55.32
29197;BME280;62796;42.654;23.316;2023-11-21T06:37:28;94412.59;;;8.14;55.10
29197;BME280;62796;42.654;23.316;2023-11-21T06:39:56;94408.72;;;8.21;54.80
29197;BME280;62796;42.654;23.316;2023-11-21T06:42:22;94409.16;;;8.19;54.85
29197;BME280;62796;42.654;23.316;2023-11-21T06:44:49;94400.84;;;8.28;54.46
29197;BME280;62796;42.654;23.316;2023-11-21T06:47:16;94412.56;;;8.53;54.13
29197;BME280;62796;42.654;23.316;2023-11-21T06:49:43;94410.19;;;8.60;54.53
29197;BME280;62796;42.654;23.316;2023-11-21T06:52:08;94422.00;;;8.90;53.54
29197;BME280;62796;42.654;23.316;2023-11-21T06:54:34;94414.34;;;9.14;52.61
29197;BME280;62796;42.654;23.316;2023-11-21T06:57:00;94408.91;;;9.34;52.24
29197;BME280;62796;42.654;23.316;2023-11-21T06:59:25;94411.44;;;9.73;51.26
29197;BME280;62796;42.654;23.316;2023-11-21T07:01:53;94415.44;;;9.92;50.68
29197;BME280;62796;42.654;23.316;2023-11-21T07:04:18;94386.28;;;9.91;48.81
29197;BME280;62796;42.654;23.316;2023-11-21T07:06:44;94401.66;;;9.97;49.60
29197;BME280;62796;42.654;23.316;2023-11-21T07:09:09;94412.84;;;10.23;49.46
29197;BME280;62796;42.654;23.316;2023-11-21T07:11:37;94410.25;;;10.40;47.93
29197;BME280;62796;42.654;23.316;2023-11-21T07:14:03;94405.59;;;10.51;48.16
29197;BME280;62796;42.654;23.316;2023-11-21T07:16:36;94405.22;;;10.64;47.42
29197;BME280;62796;42.654;23.316;2023-11-21T07:19:03;94401.00;;;10.69;47.98
29197;BME280;62796;42.654;23.316;2023-11-21T07:21:32;94418.19;;;10.78;46.69
29197;BME280;62796;42.654;23.316;2023-11-21T07:23:58;94411.44;;;10.85;47.35
29197;BME280;62796;42.654;23.316;2023-11-21T07:26:23;94407.44;;;10.86;47.55
29197;BME280;62796;42.654;23.316;2023-11-21T07:28:50;94406.53;;;11.00;45.90
29197;BME280;62796;42.654;23.316;2023-11-21T07:31:15;94401.81;;;11.06;46.92
29197;BME280;62796;42.654;23.316;2023-11-21T07:33:41;94395.53;;;11.11;47.06
29197;BME280;62796;42.654;23.316;2023-11-21T07:36:06;94402.78;;;11.03;47.38
29197;BME280;62796;42.654;23.316;2023-11-21T07:38:32;94413.16;;;11.08;47.48
29197;BME280;62796;42.654;23.316;2023-11-21T07:40:58;94405.63;;;11.14;47.43
29197;BME280;62796;42.654;23.316;2023-11-21T07:43:26;94410.53;;;11.25;46.41
29197;BME280;62796;42.654;23.316;2023-11-21T07:45:52;94412.78;;;11.26;47.36
29197;BME280;62796;42.654;23.316;2023-11-21T07:48:17;94416.91;;;11.36;45.70
29197;BME280;62796;42.654;23.316;2023-11-21T07:50:43;94395.34;;;11.20;46.23
29197;BME280;62796;42.654;23.316;2023-11-21T07:53:08;94400.38;;;11.16;46.39
29197;BME280;62796;42.654;23.316;2023-11-21T07:55:34;94405.63;;;11.14;46.77
29197;BME280;62796;42.654;23.316;2023-11-21T07:58:01;94389.69;;;11.03;47.12
29197;BME280;62796;42.654;23.316;2023-11-21T08:00:26;94376.00;;;10.94;47.01
29197;BME280;62796;42.654;23.316;2023-11-21T08:02:55;94385.09;;;10.95;47.38
29197;BME280;62796;42.654;23.316;2023-11-21T08:05:21;94378.31;;;10.96;47.28
29197;BME280;62796;42.654;23.316;2023-11-21T08:07:46;94373.56;;;11.02;47.41
29197;BME280;62796;42.654;23.316;2023-11-21T08:10:11;94381.16;;;11.07;47.05
29197;BME280;62796;42.654;23.316;2023-11-21T08:12:37;94384.44;;;11.11;47.13
29197;BME280;62796;42.654;23.316;2023-11-21T08:15:04;94369.28;;;11.01;47.13
29197;BME280;62796;42.654;23.316;2023-11-21T08:17:30;94395.53;;;11.11;47.59
29197;BME280;62796;42.654;23.316;2023-11-21T08:19:58;94385.72;;;11.10;47.15
29197;BME280;62796;42.654;23.316;2023-11-21T08:22:23;94374.34;;;11.08;47.42
29197;BME280;62796;42.654;23.316;2023-11-21T08:24:50;94379.53;;;11.26;46.78
29197;BME280;62796;42.654;23.316;2023-11-21T08:27:15;94377.09;;;11.39;47.15
29197;BME280;62796;42.654;23.316;2023-11-21T08:29:42;94385.16;;;11.37;47.10
29197;BME280;62796;42.654;23.316;2023-11-21T08:32:07;94357.59;;;11.23;46.51
29197;BME280;62796;42.654;23.316;2023-11-21T08:34:33;94372.41;;;13.24;56.80
29197;BME280;62796;42.654;23.316;2023-11-21T08:36:58;94373.50;;;15.59;49.51
29197;BME280;62796;42.654;23.316;2023-11-21T08:39:24;94376.03;;;16.91;45.98
29197;BME280;62796;42.654;23.316;2023-11-21T08:41:50;94373.97;;;17.87;42.23
29197;BME280;62796;42.654;23.316;2023-11-21T08:44:16;94379.34;;;17.98;40.09
29197;BME280;62796;42.654;23.316;2023-11-21T08:46:43;94375.69;;;18.69;39.53
29197;BME280;62796;42.654;23.316;2023-11-21T08:49:11;94373.03;;;19.18;37.88
29197;BME280;62796;42.654;23.316;2023-11-21T08:51:37;94376.72;;;19.47;37.13
29197;BME280;62796;42.654;23.316;2023-11-21T08:54:02;94366.78;;;19.66;36.45
29197;BME280;62796;42.654;23.316;2023-11-21T08:56:29;94370.34;;;19.46;32.62
29197;BME280;62796;42.654;23.316;2023-11-21T08:58:55;94359.97;;;18.00;38.63
29197;BME280;62796;42.654;23.316;2023-11-21T09:01:22;94322.78;;;17.29;34.26
29197;BME280;62796;42.654;23.316;2023-11-21T09:03:48;94336.28;;;16.80;34.49
29197;BME280;62796;42.654;23.316;2023-11-21T09:06:15;94339.41;;;16.15;35.35
29197;BME280;62796;42.654;23.316;2023-11-21T09:08:40;94317.53;;;15.52;36.20
29197;BME280;62796;42.654;23.316;2023-11-21T09:11:07;94317.06;;;15.18;37.26
29197;BME280;62796;42.654;23.316;2023-11-21T09:13:33;94322.44;;;14.80;38.24
29197;BME280;62796;42.654;23.316;2023-11-21T09:15:59;94317.34;;;14.44;39.16
29197;BME280;62796;42.654;23.316;2023-11-21T09:18:25;94316.22;;;14.17;40.14
29197;BME280;62796;42.654;23.316;2023-11-21T09:20:50;94315.31;;;13.98;40.24
29197;BME280;62796;42.654;23.316;2023-11-21T09:23:16;94294.13;;;13.72;40.50
29197;BME280;62796;42.654;23.316;2023-11-21T09:25:41;94283.56;;;13.54;40.82
29197;BME280;62796;42.654;23.316;2023-11-21T09:28:11;94281.59;;;13.38;41.49
29197;BME280;62796;42.654;23.316;2023-11-21T09:30:37;94277.59;;;13.28;41.94
29197;BME280;62796;42.654;23.316;2023-11-21T09:33:03;94265.72;;;13.16;42.13
29197;BME280;62796;42.654;23.316;2023-11-21T09:35:30;94249.28;;;13.18;41.82
29197;BME280;62796;42.654;23.316;2023-11-21T09:37:56;94259.91;;;13.09;42.24
29197;BME280;62796;42.654;23.316;2023-11-21T09:40:22;94248.28;;;13.05;42.48
29197;BME280;62796;42.654;23.316;2023-11-21T09:47:43;94250.81;;;12.92;43.52
29197;BME280;62796;42.654;23.316;2023-11-21T09:50:09;94228.31;;;13.06;43.16
29197;BME280;62796;42.654;23.316;2023-11-21T09:52:53;94216.94;;;13.10;43.00
29197;BME280;62796;42.654;23.316;2023-11-21T09:55:21;94226.78;;;13.05;43.36
29197;BME280;62796;42.654;23.316;2023-11-21T09:57:49;94203.84;;;12.83;42.82
29197;BME280;62796;42.654;23.316;2023-11-21T10:00:15;94211.94;;;12.81;43.52
29197;BME280;62796;42.654;23.316;2023-11-21T10:02:43;94210.84;;;13.06;43.25
29197;BME280;62796;42.654;23.316;2023-11-21T10:05:09;94205.31;;;13.17;42.58
29197;BME280;62796;42.654;23.316;2023-11-21T10:07:38;94203.97;;;13.29;42.34
29197;BME280;62796;42.654;23.316;2023-11-21T10:10:06;94197.72;;;13.17;42.69
29197;BME280;62796;42.654;23.316;2023-11-21T10:12:33;94202.97;;;13.32;42.71
29197;BME280;62796;42.654;23.316;2023-11-21T10:15:01;94208.47;;;13.49;42.32
29197;BME280;62796;42.654;23.316;2023-11-21T10:17:28;94177.84;;;13.54;41.55
29197;BME280;62796;42.654;23.316;2023-11-21T10:19:56;94192.69;;;13.73;41.18
29197;BME280;62796;42.654;23.316;2023-11-21T10:22:22;94175.41;;;13.80;40.67
29197;BME280;62796;42.654;23.316;2023-11-21T10:24:49;94172.50;;;13.62;40.89
29197;BME280;62796;42.654;23.316;2023-11-21T10:27:14;94174.50;;;13.67;41.21
29197;BME280;62796;42.654;23.316;2023-11-21T10:29:40;94174.22;;;13.70;41.19
29197;BME280;62796;42.654;23.316;2023-11-21T10:32:07;94175.41;;;13.80;41.16
29197;BME280;62796;42.654;23.316;2023-11-21T10:34:33;94182.47;;;13.87;40.92
29197;BME280;62796;42.654;23.316;2023-11-21T10:36:58;94161.88;;;13.60;40.95
29197;BME280;62796;42.654;23.316;2023-11-21T10:39:25;94166.72;;;13.54;41.80
29197;BME280;62796;42.654;23.316;2023-11-21T10:41:56;94166.16;;;13.67;41.35
29197;BME280;62796;42.654;23.316;2023-11-21T10:44:21;94158.50;;;13.78;41.29
29197;BME280;62796;42.654;23.316;2023-11-21T10:46:50;94133.22;;;13.76;40.77
29197;BME280;62796;42.654;23.316;2023-11-21T10:49:20;94172.47;;;14.08;40.96
29197;BME280;62796;42.654;23.316;2023-11-21T10:51:46;94161.78;;;14.18;40.63
29197;BME280;62796;42.654;23.316;2023-11-21T10:54:17;94161.94;;;14.25;40.25
29197;BME280;62796;42.654;23.316;2023-11-21T10:56:43;94151.78;;;14.28;40.19
29197;BME280;62796;42.654;23.316;2023-11-21T10:59:10;94151.03;;;14.33;39.93
29197;BME280;62796;42.654;23.316;2023-11-21T11:01:45;94147.97;;;14.31;40.06
29197;BME280;62796;42.654;23.316;2023-11-21T11:04:15;94149.31;;;14.24;40.00
29197;BME280;62796;42.654;23.316;2023-11-21T11:06:43;94131.34;;;14.20;40.01
29197;BME280;62796;42.654;23.316;2023-11-21T11:09:13;94135.38;;;14.24;40.07
29197;BME280;62796;42.654;23.316;2023-11-21T11:11:41;94132.59;;;14.24;40.07
29197;BME280;62796;42.654;23.316;2023-11-21T11:14:11;94136.94;;;14.20;39.94
29197;BME280;62796;42.654;23.316;2023-11-21T11:16:41;94133.53;;;14.03;40.76
29197;BME280;62796;42.654;23.316;2023-11-21T11:19:08;94120.16;;;13.96;40.76
29197;BME280;62796;42.654;23.316;2023-11-21T11:21:53;94119.28;;;14.12;40.05
29197;BME280;62796;42.654;23.316;2023-11-21T11:24:41;94077.94;;;13.92;40.83
29197;BME280;62796;42.654;23.316;2023-11-21T11:33:04;94105.91;;;14.05;40.74
29197;BME280;62796;42.654;23.316;2023-11-21T11:38:01;94100.13;;;14.03;40.56
29197;BME280;62796;42.654;23.316;2023-11-21T11:40:39;94081.44;;;13.98;40.64
29197;BME280;62796;42.654;23.316;2023-11-21T11:43:06;94099.53;;;14.10;41.03
29197;BME280;62796;42.654;23.316;2023-11-21T11:45:33;94097.56;;;14.05;41.59
29197;BME280;62796;42.654;23.316;2023-11-21T11:48:01;94104.97;;;13.97;42.25
29197;BME280;62796;42.654;23.316;2023-11-21T11:50:27;94110.31;;;13.95;42.26
29197;BME280;62796;42.654;23.316;2023-11-21T11:52:53;94108.56;;;13.92;42.50
29197;BME280;62796;42.654;23.316;2023-11-21T11:55:21;94101.78;;;13.81;42.41
29197;BME280;62796;42.654;23.316;2023-11-21T11:57:49;94112.94;;;13.81;42.44
29197;BME280;62796;42.654;23.316;2023-11-21T12:00:35;94097.97;;;13.84;42.46
29197;BME280;62796;42.654;23.316;2023-11-21T12:03:07;94085.19;;;13.70;43.06
29197;BME280;62796;42.654;23.316;2023-11-21T12:05:34;94100.84;;;13.73;43.74
29197;BME280;62796;42.654;23.316;2023-11-21T12:08:11;94113.47;;;13.74;43.22
29197;BME280;62796;42.654;23.316;2023-11-21T12:10:38;94109.50;;;13.64;44.43
29197;BME280;62796;42.654;23.316;2023-11-21T12:13:09;94106.53;;;13.51;44.80
29197;BME280;62796;42.654;23.316;2023-11-21T12:15:37;94121.47;;;13.48;45.01
29197;BME280;62796;42.654;23.316;2023-11-21T12:18:03;94120.75;;;13.42;45.48
29197;BME280;62796;42.654;23.316;2023-11-21T12:20:29;94103.16;;;13.23;45.45
29197;BME280;62796;42.654;23.316;2023-11-21T12:22:59;94103.44;;;13.19;46.01
29197;BME280;62796;42.654;23.316;2023-11-21T12:25:29;94095.53;;;13.29;46.64
29197;BME280;62796;42.654;23.316;2023-11-21T12:27:57;94099.34;;;13.26;46.64
29197;BME280;62796;42.654;23.316;2023-11-21T12:30:25;94101.88;;;13.24;46.25
29197;BME280;62796;42.654;23.316;2023-11-21T12:32:54;94075.41;;;13.01;46.63
29197;BME280;62796;42.654;23.316;2023-11-21T12:35:23;94100.19;;;13.10;46.64
29197;BME280;62796;42.654;23.316;2023-11-21T12:37:51;94112.34;;;12.96;47.12
29197;BME280;62796;42.654;23.316;2023-11-21T12:40:17;94104.75;;;12.91;47.88
29197;BME280;62796;42.654;23.316;2023-11-21T12:42:44;94096.19;;;12.89;48.26
29197;BME280;62796;42.654;23.316;2023-11-21T12:48:04;94092.59;;;12.99;49.05
29197;BME280;62796;42.654;23.316;2023-11-21T12:50:33;94094.91;;;12.95;49.11
29197;BME280;62796;42.654;23.316;2023-11-21T12:53:05;94070.19;;;12.86;49.47
29197;BME280;62796;42.654;23.316;2023-11-21T12:55:34;94080.50;;;12.97;48.90
29197;BME280;62796;42.654;23.316;2023-11-21T12:58:04;94075.41;;;13.01;47.52
29197;BME280;62796;42.654;23.316;2023-11-21T13:00:44;94081.50;;;12.94;48.23
29197;BME280;62796;42.654;23.316;2023-11-21T13:03:11;94067.59;;;12.94;48.23
29197;BME280;62796;42.654;23.316;2023-11-21T13:05:41;94071.16;;;12.94;48.37
29197;BME280;62796;42.654;23.316;2023-11-21T13:08:16;94057.03;;;12.92;48.20
29197;BME280;62796;42.654;23.316;2023-11-21T13:10:45;94068.34;;;13.00;48.19